createdAt,value
2023-06-30T00:00:58.081Z,97871.34
2023-06-30T00:03:25.749Z,97871.69
2023-06-30T00:05:52.760Z,97866.63
2023-06-30T00:08:20.295Z,97869.91
2023-06-30T00:10:47.015Z,97865.06
2023-06-30T00:13:13.695Z,97869.41
2023-06-30T00:15:40.469Z,97874.81
2023-06-30T00:18:07.486Z,97860.00
2023-06-30T00:20:35.173Z,97866.22
2023-06-30T00:23:02.050Z,97850.13
2023-06-30T00:25:28.751Z,97852.00
2023-06-30T00:27:55.482Z,97841.81
2023-06-30T00:30:22.148Z,97848.09
2023-06-30T00:32:49.101Z,97837.84
2023-06-30T00:35:15.805Z,97832.97
2023-06-30T00:37:42.488Z,97832.00
2023-06-30T00:40:10.532Z,97834.38
2023-06-30T00:42:37.346Z,97827.91
2023-06-30T00:45:04.438Z,97820.06
2023-06-30T00:47:31.110Z,97820.13
2023-06-30T00:49:57.792Z,97813.22
2023-06-30T00:52:24.632Z,97813.84
2023-06-30T00:54:51.422Z,97811.72
2023-06-30T00:57:18.118Z,97813.84
2023-06-30T00:59:44.884Z,97807.91
2023-06-30T01:02:13.893Z,97802.94
2023-06-30T01:04:53.802Z,97808.19
2023-06-30T01:07:24.578Z,97808.19
2023-06-30T01:10:06.838Z,97804.81
2023-06-30T01:12:33.612Z,97796.75
2023-06-30T01:15:00.296Z,97802.00
2023-06-30T01:17:27.181Z,97793.78
2023-06-30T01:19:54.835Z,97798.91
2023-06-30T01:22:26.188Z,97792.38
2023-06-30T01:24:55.024Z,97792.69
2023-06-30T01:27:22.597Z,97792.19
2023-06-30T01:29:50.506Z,97796.03
2023-06-30T01:32:18.149Z,97789.66
2023-06-30T01:34:46.042Z,97798.94
2023-06-30T01:37:13.414Z,97794.28
2023-06-30T01:39:41.403Z,97790.53
2023-06-30T01:42:08.177Z,97804.34
2023-06-30T01:44:35.613Z,97798.38
2023-06-30T01:47:02.414Z,97795.66
2023-06-30T01:49:29.986Z,97792.16
2023-06-30T01:51:56.673Z,97786.59
2023-06-30T01:54:23.333Z,97771.50
2023-06-30T01:56:50.647Z,97776.75
2023-06-30T01:59:17.544Z,97776.50
2023-06-30T02:01:44.381Z,97768.59
2023-06-30T02:04:11.455Z,97764.25
2023-06-30T02:06:38.116Z,97771.28
2023-06-30T02:09:04.801Z,97767.66
2023-06-30T02:11:31.554Z,97770.69
2023-06-30T02:13:58.403Z,97769.06
2023-06-30T02:16:25.074Z,97768.00
2023-06-30T02:18:56.077Z,97769.53
2023-06-30T02:21:23.283Z,97771.66
2023-06-30T02:23:50.181Z,97768.72
2023-06-30T02:26:17.408Z,97775.28
2023-06-30T02:28:44.097Z,97771.69
2023-06-30T02:31:10.794Z,97776.97
2023-06-30T02:33:37.500Z,97781.16
2023-06-30T02:36:04.305Z,97782.94
2023-06-30T02:38:31.242Z,97781.53
2023-06-30T02:40:57.894Z,97783.53
2023-06-30T02:43:24.541Z,97785.84
2023-06-30T02:45:51.223Z,97784.72
2023-06-30T02:48:18.198Z,97782.03
2023-06-30T02:50:45.024Z,97781.38
2023-06-30T02:53:13.753Z,97786.53
2023-06-30T02:55:40.593Z,97784.44
2023-06-30T02:58:10.442Z,97780.59
2023-06-30T03:00:38.328Z,97776.22
2023-06-30T03:03:05.960Z,97777.63
2023-06-30T03:05:35.459Z,97776.09
2023-06-30T03:08:04.638Z,97776.00
2023-06-30T03:10:31.452Z,97778.41
2023-06-30T03:12:58.637Z,97773.84
2023-06-30T03:15:26.475Z,97770.41
2023-06-30T03:17:55.020Z,97772.13
2023-06-30T03:20:22.718Z,97766.88
2023-06-30T03:22:49.804Z,97754.66
2023-06-30T03:25:16.456Z,97752.44
2023-06-30T03:27:43.424Z,97744.84
2023-06-30T03:30:10.320Z,97745.56
2023-06-30T03:32:40.993Z,97742.81
2023-06-30T03:35:08.619Z,97739.66
2023-06-30T03:37:38.239Z,97745.47
2023-06-30T03:40:07.068Z,97742.34
2023-06-30T03:42:34.585Z,97743.38
2023-06-30T03:45:01.837Z,97737.22
2023-06-30T03:47:31.618Z,97738.53
2023-06-30T03:49:58.327Z,97734.31
2023-06-30T03:52:27.225Z,97735.22
2023-06-30T03:54:53.934Z,97737.72
2023-06-30T03:57:20.615Z,97739.09
2023-06-30T03:59:47.748Z,97734.53
2023-06-30T04:02:14.495Z,97742.81
2023-06-30T04:04:41.215Z,97745.13
2023-06-30T04:07:08.010Z,97749.81
2023-06-30T04:09:34.791Z,97754.00
2023-06-30T04:12:01.542Z,97751.25
2023-06-30T04:14:28.588Z,97756.81
2023-06-30T04:16:56.813Z,97756.47
2023-06-30T04:19:23.669Z,97754.47
2023-06-30T04:21:50.901Z,97752.56
2023-06-30T04:24:17.582Z,97747.19
2023-06-30T04:26:44.250Z,97738.09
2023-06-30T04:29:10.912Z,97742.22
2023-06-30T04:31:37.673Z,97742.22
2023-06-30T04:34:04.395Z,97739.56
2023-06-30T04:36:31.037Z,97749.81
2023-06-30T04:38:59.211Z,97744.59
2023-06-30T04:41:26.774Z,97747.31
2023-06-30T04:43:53.468Z,97745.28
2023-06-30T04:46:20.151Z,97753.84
2023-06-30T04:48:46.827Z,97752.28
2023-06-30T04:51:14.881Z,97746.38
2023-06-30T04:53:42.005Z,97743.91
2023-06-30T04:56:08.635Z,97750.34
2023-06-30T04:58:35.344Z,97752.19
2023-06-30T05:01:02.002Z,97747.22
2023-06-30T05:03:28.699Z,97752.34
2023-06-30T05:05:58.057Z,97755.03
2023-06-30T05:08:24.880Z,97750.41
2023-06-30T05:10:51.620Z,97752.75
2023-06-30T05:13:18.508Z,97749.97
2023-06-30T05:15:45.507Z,97754.56
2023-06-30T05:18:12.544Z,97763.63
2023-06-30T05:20:40.646Z,97754.22
2023-06-30T05:23:07.268Z,97759.69
2023-06-30T05:25:33.922Z,97755.69
2023-06-30T05:28:01.202Z,97754.75
2023-06-30T05:30:27.859Z,97766.97
2023-06-30T05:32:54.542Z,97769.53
2023-06-30T05:35:21.235Z,97768.63
2023-06-30T05:40:14.653Z,97772.72
2023-06-30T05:42:41.282Z,97774.09
2023-06-30T05:45:07.991Z,97781.19
2023-06-30T05:47:34.657Z,97781.28
2023-06-30T05:50:01.333Z,97784.41
2023-06-30T05:52:28.596Z,97797.72
2023-06-30T05:54:55.277Z,97791.53
2023-06-30T05:57:22.054Z,97790.25
2023-06-30T05:59:48.832Z,97811.47
2023-06-30T06:02:15.509Z,97812.00
2023-06-30T06:04:42.670Z,97816.34
2023-06-30T06:07:09.429Z,97815.31
2023-06-30T06:09:36.233Z,97828.59
2023-06-30T06:12:03.616Z,97830.34
2023-06-30T06:14:30.283Z,97824.97
2023-06-30T06:16:56.969Z,97835.00
2023-06-30T06:19:23.707Z,97832.44
2023-06-30T06:21:50.318Z,97834.38
2023-06-30T06:24:19.874Z,97837.53
2023-06-30T06:26:46.639Z,97832.50
2023-06-30T06:29:18.444Z,97819.06
2023-06-30T06:31:46.109Z,97826.31
2023-06-30T06:34:12.771Z,97831.34
2023-06-30T06:36:39.412Z,97835.75
2023-06-30T06:39:06.083Z,97833.06
2023-06-30T06:41:32.929Z,97833.88
2023-06-30T06:43:59.653Z,97835.88
2023-06-30T06:46:26.425Z,97837.63
2023-06-30T06:48:53.398Z,97833.44
2023-06-30T06:51:20.050Z,97836.09
2023-06-30T06:53:46.692Z,97843.69
2023-06-30T06:56:13.417Z,97843.53
2023-06-30T06:58:40.277Z,97840.84
2023-06-30T07:01:06.997Z,97846.44
2023-06-30T07:03:33.678Z,97839.88
2023-06-30T07:06:00.404Z,97844.47
2023-06-30T07:08:27.978Z,97838.81
2023-06-30T07:10:54.675Z,97844.19
2023-06-30T07:13:22.136Z,97839.63
2023-06-30T07:15:52.081Z,97831.44
2023-06-30T07:18:21.858Z,97841.97
2023-06-30T07:20:48.960Z,97843.28
2023-06-30T07:23:15.801Z,97843.50
2023-06-30T07:25:42.704Z,97849.69
2023-06-30T07:28:09.628Z,97855.38
2023-06-30T07:30:37.533Z,97844.31
2023-06-30T07:33:04.787Z,97850.53
2023-06-30T07:35:31.579Z,97847.47
2023-06-30T07:37:58.198Z,97853.16
2023-06-30T07:40:25.034Z,97843.72
2023-06-30T07:42:51.859Z,97842.19
2023-06-30T07:45:18.647Z,97855.56
2023-06-30T07:47:46.997Z,97870.31
2023-06-30T07:50:14.243Z,97867.13
2023-06-30T07:52:43.356Z,97875.75
2023-06-30T07:55:11.515Z,97880.91
2023-06-30T07:57:40.478Z,97893.09
2023-06-30T08:00:07.802Z,97903.72
2023-06-30T08:02:40.777Z,97899.00
2023-06-30T08:05:07.738Z,97907.03
2023-06-30T08:07:50.609Z,97906.94
2023-06-30T08:10:18.596Z,97900.34
2023-06-30T08:12:45.394Z,97902.94
2023-06-30T08:15:14.984Z,97905.66
2023-06-30T08:17:52.220Z,97912.78
2023-06-30T08:20:25.889Z,97915.47
2023-06-30T08:22:53.077Z,97911.13
2023-06-30T08:25:22.784Z,97914.66
2023-06-30T08:27:49.403Z,97915.47
2023-06-30T08:30:16.699Z,97915.47
2023-06-30T08:32:44.079Z,97918.53
2023-06-30T08:35:11.115Z,97925.06
2023-06-30T08:37:38.797Z,97920.41
2023-06-30T08:40:06.167Z,97924.59
2023-06-30T08:42:32.883Z,97924.38
2023-06-30T08:44:59.529Z,97927.66
2023-06-30T08:47:27.148Z,97926.72
2023-06-30T08:49:53.988Z,97928.09
2023-06-30T08:52:20.723Z,97921.34
2023-06-30T08:54:47.386Z,97922.03
2023-06-30T08:57:18.862Z,97921.44
2023-06-30T08:59:46.124Z,97914.78
2023-06-30T09:02:13.012Z,97919.00
2023-06-30T09:09:58.247Z,97914.31
2023-06-30T09:12:25.490Z,97915.38
2023-06-30T09:14:52.545Z,97912.09
2023-06-30T09:17:19.507Z,97920.38
2023-06-30T09:19:46.285Z,97923.91
2023-06-30T09:22:55.175Z,97921.31
2023-06-30T09:25:01.120Z,97914.31
2023-06-30T09:27:29.087Z,97916.66
2023-06-30T09:29:56.232Z,97901.09
2023-06-30T09:32:32.841Z,97909.75
2023-06-30T09:35:08.944Z,97905.41
2023-06-30T09:37:42.776Z,97899.31
2023-06-30T09:40:15.601Z,97904.69
2023-06-30T09:42:45.213Z,97903.06
2023-06-30T09:45:12.112Z,97897.06
2023-06-30T09:47:41.453Z,97902.91
2023-06-30T09:50:08.462Z,97899.75
2023-06-30T09:52:35.487Z,97908.41
2023-06-30T09:55:11.411Z,97895.16
2023-06-30T09:57:38.304Z,97902.44
2023-06-30T10:00:06.197Z,97898.16
2023-06-30T10:02:32.936Z,97909.22
2023-06-30T10:05:00.040Z,97901.31
2023-06-30T10:07:26.802Z,97896.63
2023-06-30T10:09:53.609Z,97897.53
2023-06-30T10:12:20.338Z,97896.66
2023-06-30T10:14:48.443Z,97895.38
2023-06-30T10:17:15.289Z,97907.22
2023-06-30T10:19:41.960Z,97901.81
2023-06-30T10:22:08.608Z,97899.69
2023-06-30T10:24:43.629Z,97900.06
2023-06-30T10:27:11.177Z,97904.53
2023-06-30T10:29:37.855Z,97903.31
2023-06-30T10:32:05.109Z,97902.78
2023-06-30T10:34:31.863Z,97904.66
2023-06-30T10:36:59.420Z,97903.50
2023-06-30T10:39:26.641Z,97908.72
2023-06-30T10:41:53.301Z,97901.75
2023-06-30T10:44:21.846Z,97905.56
2023-06-30T10:46:48.753Z,97896.59
2023-06-30T10:49:34.282Z,97891.59
2023-06-30T10:52:03.487Z,97895.53
2023-06-30T10:54:41.590Z,97890.94
2023-06-30T10:57:12.059Z,97895.03
2023-06-30T10:59:39.509Z,97893.72
2023-06-30T11:02:15.363Z,97899.50
2023-06-30T11:04:42.918Z,97913.50
2023-06-30T11:07:11.704Z,97913.75
2023-06-30T11:09:50.497Z,97923.50
2023-06-30T11:12:20.890Z,97925.03
2023-06-30T11:14:54.604Z,97912.50
2023-06-30T11:17:21.314Z,97905.91
2023-06-30T11:20:03.179Z,97900.97
2023-06-30T11:22:32.892Z,97890.03
2023-06-30T11:24:59.608Z,97892.00
2023-06-30T11:27:29.210Z,97881.09
2023-06-30T11:29:55.905Z,97878.34
2023-06-30T11:32:26.391Z,97880.44
2023-06-30T11:34:53.297Z,97882.25
2023-06-30T11:37:20.041Z,97880.28
2023-06-30T11:39:56.032Z,97880.09
2023-06-30T11:42:22.935Z,97878.72
2023-06-30T11:44:52.526Z,97886.56
2023-06-30T11:47:22.201Z,97886.97
2023-06-30T11:49:49.560Z,97890.97
2023-06-30T11:52:16.554Z,97891.59
2023-06-30T11:54:43.228Z,97885.91
2023-06-30T11:57:09.864Z,97887.53
2023-06-30T11:59:36.559Z,97880.69
2023-06-30T12:02:04.007Z,97882.81
2023-06-30T12:04:37.098Z,97889.25
2023-06-30T12:07:04.780Z,97878.72
2023-06-30T12:09:31.477Z,97884.25
2023-06-30T12:11:58.192Z,97880.84
2023-06-30T12:14:28.423Z,97881.50
2023-06-30T12:16:55.462Z,97879.75
2023-06-30T12:19:25.970Z,97876.75
2023-06-30T12:21:56.637Z,97874.03
2023-06-30T12:24:23.436Z,97877.81
2023-06-30T12:26:53.122Z,97877.50
2023-06-30T12:29:19.975Z,97874.78
2023-06-30T12:31:48.504Z,97879.13
2023-06-30T12:34:34.598Z,97873.63
2023-06-30T12:37:01.346Z,97883.63
2023-06-30T12:39:28.442Z,97876.84
2023-06-30T12:41:55.240Z,97873.78
2023-06-30T12:44:22.382Z,97880.41
2023-06-30T12:47:07.623Z,97873.41
2023-06-30T12:49:37.596Z,97874.28
2023-06-30T12:52:04.816Z,97876.56
2023-06-30T12:54:31.468Z,97873.78
2023-06-30T12:56:58.103Z,97888.59
2023-06-30T12:59:24.942Z,97886.53
2023-06-30T13:01:51.726Z,97885.97
2023-06-30T13:04:18.409Z,97877.34
2023-06-30T13:06:45.235Z,97876.91
2023-06-30T13:09:11.942Z,97876.59
2023-06-30T13:11:38.647Z,97864.81
2023-06-30T13:14:05.335Z,97869.72
2023-06-30T13:16:32.832Z,97872.56
2023-06-30T13:19:00.183Z,97865.78
2023-06-30T13:21:29.276Z,97866.00
2023-06-30T13:23:55.958Z,97864.25
2023-06-30T13:26:22.976Z,97861.78
2023-06-30T13:28:51.990Z,97851.16
2023-06-30T13:31:18.951Z,97856.44
2023-06-30T13:33:45.876Z,97851.03
2023-06-30T13:36:13.989Z,97850.84
2023-06-30T13:38:43.846Z,97836.50
2023-06-30T13:41:10.679Z,97843.53
2023-06-30T13:43:37.532Z,97833.22
2023-06-30T13:46:05.169Z,97826.94
2023-06-30T13:48:32.463Z,97831.53
2023-06-30T13:50:59.139Z,97829.34
2023-06-30T13:53:26.299Z,97832.31
2023-06-30T13:55:53.129Z,97822.34
2023-06-30T13:58:19.806Z,97818.03
2023-06-30T14:00:48.347Z,97807.50
2023-06-30T14:03:15.899Z,97813.00
2023-06-30T14:05:42.900Z,97808.84
2023-06-30T14:08:09.851Z,97798.59
2023-06-30T14:10:36.697Z,97800.97
2023-06-30T14:13:04.341Z,97798.28
2023-06-30T14:15:32.580Z,97813.91
2023-06-30T14:18:00.567Z,97806.47
2023-06-30T14:20:28.316Z,97804.88
2023-06-30T14:22:54.989Z,97813.03
2023-06-30T14:25:22.612Z,97813.94
2023-06-30T14:27:49.371Z,97813.63
2023-06-30T14:30:16.192Z,97813.13
2023-06-30T14:32:43.030Z,97820.16
2023-06-30T14:35:09.774Z,97813.22
2023-06-30T14:37:36.444Z,97811.53
2023-06-30T14:40:04.225Z,97818.53
2023-06-30T14:42:32.511Z,97817.34
2023-06-30T14:44:59.613Z,97813.38
2023-06-30T14:47:26.379Z,97810.88
2023-06-30T14:49:53.010Z,97814.59
2023-06-30T14:52:19.861Z,97803.41
2023-06-30T14:54:46.500Z,97808.56
2023-06-30T14:57:14.050Z,97811.03
2023-06-30T14:59:40.729Z,97807.16
2023-06-30T15:02:07.590Z,97810.09
2023-06-30T15:04:34.883Z,97818.44
2023-06-30T15:07:01.631Z,97814.75
2023-06-30T15:09:28.676Z,97805.03
2023-06-30T15:11:55.357Z,97803.53
2023-06-30T15:14:22.061Z,97809.72
2023-06-30T15:16:48.838Z,97800.03
2023-06-30T15:19:15.586Z,97806.44
2023-06-30T15:21:42.364Z,97813.81
2023-06-30T15:24:09.027Z,97805.13
2023-06-30T15:26:35.708Z,97797.91
2023-06-30T15:29:02.725Z,97800.66
2023-06-30T15:34:16.667Z,97788.94
2023-06-30T15:36:43.374Z,97794.50
2023-06-30T15:39:10.010Z,97786.34
2023-06-30T15:41:37.013Z,97798.31
2023-06-30T15:44:03.905Z,97784.03
2023-06-30T15:46:30.612Z,97784.50
2023-06-30T15:48:57.567Z,97786.25
2023-06-30T15:51:24.234Z,97779.84
2023-06-30T15:53:50.897Z,97774.06
2023-06-30T15:56:17.531Z,97774.13
2023-06-30T15:58:44.277Z,97770.56
2023-06-30T16:01:10.983Z,97775.91
2023-06-30T16:03:38.367Z,97779.47
2023-06-30T16:06:05.257Z,97782.38
2023-06-30T16:08:31.923Z,97781.75
2023-06-30T16:10:58.626Z,97778.75
2023-06-30T16:13:25.315Z,97781.50
2023-06-30T16:15:51.983Z,97771.06
2023-06-30T16:18:19.719Z,97773.75
2023-06-30T16:20:46.402Z,97762.91
2023-06-30T16:23:13.434Z,97771.25
2023-06-30T16:25:40.099Z,97769.22
2023-06-30T16:28:06.888Z,97770.13
2023-06-30T16:30:34.523Z,97767.63
2023-06-30T16:33:01.461Z,97768.19
2023-06-30T16:35:28.653Z,97766.00
2023-06-30T16:37:55.632Z,97763.53
2023-06-30T16:40:22.351Z,97762.31
2023-06-30T16:42:49.045Z,97763.81
2023-06-30T16:45:15.688Z,97774.56
2023-06-30T16:47:44.583Z,97771.28
2023-06-30T16:50:12.047Z,97772.97
2023-06-30T16:52:39.999Z,97759.44
2023-06-30T16:55:06.991Z,97760.75
2023-06-30T16:57:34.041Z,97763.78
2023-06-30T17:00:04.956Z,97772.47
2023-06-30T17:02:32.204Z,97779.38
2023-06-30T17:04:59.166Z,97771.53
2023-06-30T17:07:25.971Z,97778.84
2023-06-30T17:09:52.863Z,97777.09
2023-06-30T17:12:19.516Z,97776.59
2023-06-30T17:14:46.139Z,97771.72
2023-06-30T17:17:13.665Z,97773.75
2023-06-30T17:19:40.321Z,97778.88
2023-06-30T17:22:07.087Z,97777.50
2023-06-30T17:24:33.907Z,97776.75
2023-06-30T17:27:00.577Z,97774.53
2023-06-30T17:29:27.277Z,97789.34
2023-06-30T17:31:54.495Z,97775.94
2023-06-30T17:34:21.183Z,97780.88
2023-06-30T17:36:47.806Z,97783.19
2023-06-30T17:39:14.622Z,97779.22
2023-06-30T17:41:41.644Z,97776.53
2023-06-30T17:44:08.331Z,97781.88
2023-06-30T17:46:35.022Z,97779.50
2023-06-30T17:49:20.877Z,97783.50
2023-06-30T17:51:47.582Z,97786.16
2023-06-30T17:54:17.010Z,97786.41
2023-06-30T17:56:45.426Z,97782.13
2023-06-30T17:59:13.287Z,97784.56
2023-06-30T18:01:40.410Z,97785.19
2023-06-30T18:04:07.213Z,97788.88
2023-06-30T18:06:34.279Z,97782.47
2023-06-30T18:09:00.968Z,97776.56
2023-06-30T18:11:27.620Z,97780.63
2023-06-30T18:13:54.257Z,97787.38
2023-06-30T18:16:21.217Z,97798.50
2023-06-30T18:18:47.948Z,97791.78
2023-06-30T18:21:14.613Z,97793.91
2023-06-30T18:23:42.538Z,97793.00
2023-06-30T18:26:09.316Z,97801.59
2023-06-30T18:28:36.001Z,97796.75
2023-06-30T18:31:02.705Z,97798.59
2023-06-30T18:33:29.314Z,97801.22
2023-06-30T18:35:56.032Z,97804.31
2023-06-30T18:38:23.212Z,97804.81
2023-06-30T18:40:50.046Z,97802.44
2023-06-30T18:43:16.678Z,97809.94
2023-06-30T18:45:43.508Z,97816.22
2023-06-30T18:48:10.301Z,97814.09
2023-06-30T18:50:36.961Z,97823.41
2023-06-30T18:53:03.635Z,97820.91
2023-06-30T18:55:31.970Z,97822.84
2023-06-30T18:57:58.639Z,97828.09
2023-06-30T19:00:25.355Z,97822.34
2023-06-30T19:02:52.137Z,97823.84
2023-06-30T19:05:18.897Z,97820.25
2023-06-30T19:07:45.583Z,97819.16
2023-06-30T19:10:12.326Z,97823.03
2023-06-30T19:12:39.050Z,97828.88
2023-06-30T19:15:06.367Z,97835.13
2023-06-30T19:17:34.992Z,97834.69
2023-06-30T19:20:01.877Z,97835.59
2023-06-30T19:22:28.540Z,97843.91
2023-06-30T19:24:55.470Z,97845.03
2023-06-30T19:27:22.161Z,97847.19
2023-06-30T19:29:48.856Z,97851.44
2023-06-30T19:32:15.509Z,97851.88
2023-06-30T19:34:44.559Z,97847.69
2023-06-30T19:37:12.067Z,97850.13
2023-06-30T19:39:38.806Z,97856.16
2023-06-30T19:42:05.593Z,97865.53
2023-06-30T19:44:32.280Z,97867.72
2023-06-30T19:46:58.950Z,97862.09
2023-06-30T19:49:25.625Z,97868.66
2023-06-30T19:51:52.253Z,97869.75
2023-06-30T19:54:18.890Z,97867.16
2023-06-30T19:56:45.551Z,97876.28
2023-06-30T19:59:13.564Z,97875.59
2023-06-30T20:01:44.495Z,97882.63
2023-06-30T20:04:11.674Z,97887.91
2023-06-30T20:06:38.727Z,97884.28
2023-06-30T20:09:05.849Z,97887.00
2023-06-30T20:11:32.510Z,97889.09
2023-06-30T20:13:59.186Z,97893.66
2023-06-30T20:16:25.880Z,97886.19
2023-06-30T20:18:52.921Z,97883.38
2023-06-30T20:21:19.774Z,97889.00
2023-06-30T20:23:46.381Z,97885.75
2023-06-30T20:26:13.346Z,97881.41
2023-06-30T20:28:39.982Z,97882.88
2023-06-30T20:31:09.840Z,97880.84
2023-06-30T20:33:36.801Z,97877.50
2023-06-30T20:36:03.711Z,97881.59
2023-06-30T20:38:30.474Z,97881.22
2023-06-30T20:40:57.185Z,97877.72
2023-06-30T20:43:23.900Z,97878.53
2023-06-30T20:45:50.542Z,97884.81
2023-06-30T20:48:17.195Z,97880.03
2023-06-30T20:50:44.620Z,97882.13
2023-06-30T20:53:11.531Z,97885.09
2023-06-30T20:55:38.517Z,97875.72
2023-06-30T20:58:05.139Z,97877.94
2023-06-30T21:00:31.830Z,97870.91
2023-06-30T21:02:58.548Z,97873.59
2023-06-30T21:05:25.337Z,97875.25
2023-06-30T21:07:51.972Z,97879.56
2023-06-30T21:10:18.665Z,97873.38
2023-06-30T21:12:45.365Z,97878.28
2023-06-30T21:15:12.001Z,97875.47
2023-06-30T21:17:38.675Z,97866.22
2023-06-30T21:20:05.622Z,97873.69
2023-06-30T21:22:32.262Z,97869.59
2023-06-30T21:24:58.887Z,97876.06
2023-06-30T21:27:26.912Z,97877.09
2023-06-30T21:29:53.561Z,97874.03
2023-06-30T21:32:20.239Z,97875.34
2023-06-30T21:34:47.475Z,97870.44
2023-06-30T21:37:14.197Z,97873.94
2023-06-30T21:39:41.013Z,97870.09
2023-06-30T21:42:07.777Z,97875.09
2023-06-30T21:44:34.404Z,97869.72
2023-06-30T21:47:01.155Z,97874.53
2023-06-30T21:49:27.830Z,97870.53
2023-06-30T21:51:54.858Z,97869.47
2023-06-30T21:54:31.358Z,97868.56
2023-06-30T21:57:07.738Z,97869.38
2023-06-30T21:59:34.814Z,97865.75
2023-06-30T22:02:01.467Z,97869.25
2023-06-30T22:04:31.307Z,97870.53
2023-06-30T22:06:58.154Z,97872.31
2023-06-30T22:09:25.238Z,97869.50
2023-06-30T22:11:51.959Z,97870.09
2023-06-30T22:14:18.612Z,97864.38
2023-06-30T22:16:46.005Z,97861.91
2023-06-30T22:19:12.741Z,97870.44
2023-06-30T22:21:39.509Z,97869.63
2023-06-30T22:24:06.330Z,97860.03
2023-06-30T22:26:32.977Z,97870.47
2023-06-30T22:28:59.621Z,97871.16
2023-06-30T22:31:26.393Z,97870.81
2023-06-30T22:33:53.275Z,97871.66
2023-06-30T22:36:20.015Z,97868.59
2023-06-30T22:38:46.680Z,97871.28
2023-06-30T22:41:13.323Z,97866.13
2023-06-30T22:43:40.044Z,97875.00
2023-06-30T22:46:06.703Z,97873.00
2023-06-30T22:48:33.331Z,97871.28
2023-06-30T22:50:59.958Z,97875.00
2023-06-30T22:53:26.668Z,97878.97
2023-06-30T22:55:53.299Z,97875.16
2023-06-30T22:58:19.999Z,97880.28
2023-06-30T23:00:46.725Z,97875.38
2023-06-30T23:03:13.626Z,97869.41
2023-06-30T23:05:40.478Z,97866.34
2023-06-30T23:08:07.375Z,97862.47
2023-06-30T23:10:34.040Z,97866.34
2023-06-30T23:13:00.667Z,97868.59
2023-06-30T23:15:27.326Z,97860.03
2023-06-30T23:17:54.162Z,97871.72
2023-06-30T23:20:25.008Z,97865.06
2023-06-30T23:22:52.528Z,97863.09
2023-06-30T23:25:22.179Z,97866.81
2023-06-30T23:27:51.607Z,97863.47
2023-06-30T23:30:18.234Z,97858.06
2023-06-30T23:32:47.703Z,97868.03
2023-06-30T23:35:14.470Z,97869.66
2023-06-30T23:37:41.086Z,97867.69
2023-06-30T23:40:08.016Z,97868.00
2023-06-30T23:42:34.648Z,97872.69
2023-06-30T23:45:01.258Z,97871.53
2023-06-30T23:47:27.953Z,97877.03
2023-06-30T23:49:54.629Z,97871.53
2023-06-30T23:52:21.935Z,97874.44
2023-06-30T23:54:48.658Z,97868.25
2023-06-30T23:57:15.348Z,97861.19
2023-06-30T23:59:44.624Z,97866.09
